Terminal Aerodrome Forecast
Issued by NWS

Home | Current Version | Previous Version | Text Only | Print | Product List | Glossary On
Versions: 1 2 3 4 5 6 7 8 9 10 11 12 13
000
FTUS45 KABQ 270527
TAFFMN
TAF
KFMN 270527Z 2706/2806 08008KT P6SM VCSH BKN100
     FM270800 08006KT P6SM SCT120
     FM271700 23008KT P6SM FEW090 BKN150
     FM280100 VRB06KT P6SM BKN130=

USA.gov is the U.S. government's official web portal to all federal, state and local government web resources and services.